sensor_id;sensor_type;location;lat;lon;timestamp;pressure;altitude;pressure_sealevel;temperature;humidity
50349;BME280;36250;48.740;22.174;2022-09-13T00:00:32;100071.97;;;10.67;100.00
50349;BME280;36250;48.740;22.174;2022-09-13T00:02:58;100078.09;;;10.68;100.00
50349;BME280;36250;48.740;22.174;2022-09-13T00:05:24;100075.25;;;10.69;100.00
50349;BME280;36250;48.740;22.174;2022-09-13T00:07:49;100072.41;;;10.71;100.00
50349;BME280;36250;48.740;22.174;2022-09-13T00:10:15;100074.44;;;10.69;100.00
50349;BME280;36250;48.740;22.174;2022-09-13T00:12:41;100063.34;;;10.58;100.00
50349;BME280;36250;48.740;22.174;2022-09-13T00:15:07;100056.81;;;10.54;100.00
50349;BME280;36250;48.740;22.174;2022-09-13T00:17:33;100056.19;;;10.52;100.00
50349;BME280;36250;48.740;22.174;2022-09-13T00:19:59;100053.16;;;10.55;100.00
50349;BME280;36250;48.740;22.174;2022-09-13T00:22:25;100053.38;;;10.54;100.00
50349;BME280;36250;48.740;22.174;2022-09-13T00:24:51;100046.38;;;10.46;100.00
50349;BME280;36250;48.740;22.174;2022-09-13T00:27:16;100050.44;;;10.42;100.00
50349;BME280;36250;48.740;22.174;2022-09-13T00:29:42;100052.81;;;10.37;100.00
50349;BME280;36250;48.740;22.174;2022-09-13T00:32:07;100046.28;;;10.39;100.00
50349;BME280;36250;48.740;22.174;2022-09-13T00:34:32;100048.00;;;10.40;100.00
50349;BME280;36250;48.740;22.174;2022-09-13T00:36:58;100053.91;;;10.42;100.00
50349;BME280;36250;48.740;22.174;2022-09-13T00:39:23;100055.34;;;10.45;100.00
50349;BME280;36250;48.740;22.174;2022-09-13T00:41:48;100051.69;;;10.46;100.00
50349;BME280;36250;48.740;22.174;2022-09-13T00:45:33;100049.88;;;10.53;100.00
50349;BME280;36250;48.740;22.174;2022-09-13T00:50:13;100044.19;;;10.50;100.00
50349;BME280;36250;48.740;22.174;2022-09-13T00:52:43;100053.31;;;10.47;100.00
50349;BME280;36250;48.740;22.174;2022-09-13T00:55:18;100056.59;;;10.49;100.00
50349;BME280;36250;48.740;22.174;2022-09-13T00:57:45;100057.41;;;10.50;100.00
50349;BME280;36250;48.740;22.174;2022-09-13T01:00:15;100059.47;;;10.54;100.00
50349;BME280;36250;48.740;22.174;2022-09-13T01:02:52;100064.81;;;10.61;100.00
50349;BME280;36250;48.740;22.174;2022-09-13T01:05:23;100059.13;;;10.64;100.00
50349;BME280;36250;48.740;22.174;2022-09-13T01:07:51;100059.75;;;10.66;100.00
50349;BME280;36250;48.740;22.174;2022-09-13T01:10:16;100063.19;;;10.60;100.00
50349;BME280;36250;48.740;22.174;2022-09-13T01:12:50;100066.66;;;10.61;100.00
50349;BME280;36250;48.740;22.174;2022-09-13T01:15:17;100063.75;;;10.55;100.00
50349;BME280;36250;48.740;22.174;2022-09-13T01:17:43;100067.63;;;10.60;100.00
50349;BME280;36250;48.740;22.174;2022-09-13T01:20:10;100066.44;;;10.62;100.00
50349;BME280;36250;48.740;22.174;2022-09-13T01:28:14;100056.53;;;10.78;100.00
50349;BME280;36250;48.740;22.174;2022-09-13T01:30:49;100053.91;;;10.78;100.00
50349;BME280;36250;48.740;22.174;2022-09-13T01:36:32;100059.44;;;10.83;100.00
50349;BME280;36250;48.740;22.174;2022-09-13T01:45:02;100048.47;;;10.86;100.00
50349;BME280;36250;48.740;22.174;2022-09-13T01:50:18;100043.38;;;10.91;100.00
50349;BME280;36250;48.740;22.174;2022-09-13T01:52:57;100050.94;;;10.94;100.00
50349;BME280;36250;48.740;22.174;2022-09-13T01:58:29;100051.94;;;10.93;100.00
50349;BME280;36250;48.740;22.174;2022-09-13T02:01:15;100049.50;;;10.92;100.00
50349;BME280;36250;48.740;22.174;2022-09-13T02:03:58;100047.44;;;10.87;100.00
50349;BME280;36250;48.740;22.174;2022-09-13T02:06:35;100042.16;;;10.87;100.00
50349;BME280;36250;48.740;22.174;2022-09-13T02:09:08;100037.25;;;10.91;100.00
50349;BME280;36250;48.740;22.174;2022-09-13T02:11:37;100038.53;;;11.01;100.00
50349;BME280;36250;48.740;22.174;2022-09-13T02:14:12;100043.03;;;11.08;100.00
50349;BME280;36250;48.740;22.174;2022-09-13T02:17:00;100040.59;;;11.13;100.00
50349;BME280;36250;48.740;22.174;2022-09-13T02:22:19;100047.53;;;11.14;100.00
50349;BME280;36250;48.740;22.174;2022-09-13T02:24:52;100041.22;;;11.08;100.00
50349;BME280;36250;48.740;22.174;2022-09-13T02:27:20;100041.78;;;11.04;100.00
50349;BME280;36250;48.740;22.174;2022-09-13T02:29:50;100036.91;;;11.00;100.00
50349;BME280;36250;48.740;22.174;2022-09-13T02:32:21;100039.53;;;11.00;100.00
50349;BME280;36250;48.740;22.174;2022-09-13T02:34:58;100034.44;;;10.99;100.00
50349;BME280;36250;48.740;22.174;2022-09-13T02:37:26;100039.72;;;10.99;100.00
50349;BME280;36250;48.740;22.174;2022-09-13T02:40:07;100035.69;;;11.03;100.00
50349;BME280;36250;48.740;22.174;2022-09-13T02:42:35;100040.00;;;11.11;100.00
50349;BME280;36250;48.740;22.174;2022-09-13T02:45:02;100040.81;;;11.18;100.00
50349;BME280;36250;48.740;22.174;2022-09-13T02:58:36;100038.22;;;11.32;100.00
50349;BME280;36250;48.740;22.174;2022-09-13T03:01:05;100043.75;;;11.37;100.00
50349;BME280;36250;48.740;22.174;2022-09-13T03:03:30;100047.25;;;11.44;100.00
50349;BME280;36250;48.740;22.174;2022-09-13T03:05:55;100046.44;;;11.50;100.00
50349;BME280;36250;48.740;22.174;2022-09-13T03:08:22;100050.09;;;11.42;100.00
50349;BME280;36250;48.740;22.174;2022-09-13T03:13:58;100045.34;;;11.31;100.00
50349;BME280;36250;48.740;22.174;2022-09-13T03:17:03;100045.56;;;11.29;100.00
50349;BME280;36250;48.740;22.174;2022-09-13T03:30:55;100040.25;;;11.23;100.00
50349;BME280;36250;48.740;22.174;2022-09-13T03:33:30;100043.50;;;11.25;100.00
50349;BME280;36250;48.740;22.174;2022-09-13T03:39:11;100043.59;;;11.52;100.00
50349;BME280;36250;48.740;22.174;2022-09-13T03:41:42;100034.81;;;11.58;100.00
50349;BME280;36250;48.740;22.174;2022-09-13T03:44:11;100032.41;;;11.70;100.00
50349;BME280;36250;48.740;22.174;2022-09-13T03:46:44;100026.06;;;11.98;100.00
50349;BME280;36250;48.740;22.174;2022-09-13T03:49:12;100024.50;;;12.10;100.00
50349;BME280;36250;48.740;22.174;2022-09-13T03:51:39;100022.41;;;12.19;100.00
50349;BME280;36250;48.740;22.174;2022-09-13T03:54:10;100014.25;;;12.27;100.00
50349;BME280;36250;48.740;22.174;2022-09-13T03:56:38;100015.44;;;12.38;100.00
50349;BME280;36250;48.740;22.174;2022-09-13T03:59:03;100014.22;;;12.41;100.00
50349;BME280;36250;48.740;22.174;2022-09-13T04:01:29;100019.31;;;12.42;100.00
50349;BME280;36250;48.740;22.174;2022-09-13T04:03:55;100024.63;;;12.42;100.00
50349;BME280;36250;48.740;22.174;2022-09-13T04:06:20;100026.25;;;12.43;100.00
50349;BME280;36250;48.740;22.174;2022-09-13T04:08:45;100028.13;;;12.50;100.00
50349;BME280;36250;48.740;22.174;2022-09-13T04:11:11;100022.56;;;12.58;100.00
50349;BME280;36250;48.740;22.174;2022-09-13T04:13:36;100026.03;;;12.65;100.00
50349;BME280;36250;48.740;22.174;2022-09-13T04:16:04;100023.78;;;12.69;100.00
50349;BME280;36250;48.740;22.174;2022-09-13T04:18:30;100024.56;;;12.69;100.00
50349;BME280;36250;48.740;22.174;2022-09-13T04:20:58;100023.97;;;12.67;100.00
50349;BME280;36250;48.740;22.174;2022-09-13T04:23:24;100032.31;;;12.78;100.00
50349;BME280;36250;48.740;22.174;2022-09-13T04:25:50;100027.19;;;12.83;100.00
50349;BME280;36250;48.740;22.174;2022-09-13T04:28:16;100032.94;;;12.80;100.00
50349;BME280;36250;48.740;22.174;2022-09-13T04:30:45;100034.97;;;12.78;100.00
50349;BME280;36250;48.740;22.174;2022-09-13T04:33:11;100034.38;;;12.75;100.00
50349;BME280;36250;48.740;22.174;2022-09-13T04:35:37;100035.81;;;12.78;100.00
50349;BME280;36250;48.740;22.174;2022-09-13T04:38:04;100038.25;;;12.80;100.00
50349;BME280;36250;48.740;22.174;2022-09-13T04:40:30;100037.00;;;12.82;100.00
50349;BME280;36250;48.740;22.174;2022-09-13T04:42:55;100034.97;;;12.84;100.00
50349;BME280;36250;48.740;22.174;2022-09-13T04:45:20;100038.84;;;12.88;100.00
50349;BME280;36250;48.740;22.174;2022-09-13T04:47:51;100037.59;;;12.91;100.00
50349;BME280;36250;48.740;22.174;2022-09-13T04:50:16;100041.09;;;12.85;100.00
50349;BME280;36250;48.740;22.174;2022-09-13T04:52:42;100037.53;;;12.39;100.00
50349;BME280;36250;48.740;22.174;2022-09-13T04:55:07;100037.53;;;11.98;100.00
50349;BME280;36250;48.740;22.174;2022-09-13T04:57:32;100030.75;;;11.76;100.00
50349;BME280;36250;48.740;22.174;2022-09-13T04:59:58;100028.31;;;11.67;100.00
50349;BME280;36250;48.740;22.174;2022-09-13T05:02:23;100032.19;;;11.71;100.00
50349;BME280;36250;48.740;22.174;2022-09-13T05:04:48;100032.41;;;11.83;100.00
50349;BME280;36250;48.740;22.174;2022-09-13T05:07:14;100024.66;;;11.95;100.00
50349;BME280;36250;48.740;22.174;2022-09-13T05:09:39;100032.84;;;12.00;100.00
50349;BME280;36250;48.740;22.174;2022-09-13T05:12:04;100028.56;;;12.06;100.00
50349;BME280;36250;48.740;22.174;2022-09-13T05:14:33;100030.78;;;12.16;100.00
50349;BME280;36250;48.740;22.174;2022-09-13T05:16:59;100028.56;;;12.20;100.00
50349;BME280;36250;48.740;22.174;2022-09-13T05:19:24;100031.22;;;12.20;100.00
50349;BME280;36250;48.740;22.174;2022-09-13T05:21:50;100034.69;;;12.27;100.00
50349;BME280;36250;48.740;22.174;2022-09-13T05:24:15;100031.59;;;12.37;100.00
50349;BME280;36250;48.740;22.174;2022-09-13T05:26:40;100031.19;;;12.40;100.00
50349;BME280;36250;48.740;22.174;2022-09-13T05:29:06;100028.53;;;12.46;100.00
50349;BME280;36250;48.740;22.174;2022-09-13T05:31:36;100031.16;;;12.53;100.00
50349;BME280;36250;48.740;22.174;2022-09-13T05:34:10;100027.66;;;12.59;100.00
50349;BME280;36250;48.740;22.174;2022-09-13T05:36:36;100025.22;;;12.65;100.00
50349;BME280;36250;48.740;22.174;2022-09-13T05:39:02;100032.13;;;12.72;100.00
50349;BME280;36250;48.740;22.174;2022-09-13T05:41:27;100029.69;;;12.71;100.00
50349;BME280;36250;48.740;22.174;2022-09-13T05:43:53;100030.94;;;12.61;100.00
50349;BME280;36250;48.740;22.174;2022-09-13T05:46:19;100024.03;;;12.54;100.00
50349;BME280;36250;48.740;22.174;2022-09-13T05:48:46;100018.94;;;12.45;100.00
50349;BME280;36250;48.740;22.174;2022-09-13T05:51:21;100022.19;;;12.41;100.00
50349;BME280;36250;48.740;22.174;2022-09-13T05:53:48;100022.63;;;12.38;100.00
50349;BME280;36250;48.740;22.174;2022-09-13T05:56:16;100020.16;;;12.36;100.00
50349;BME280;36250;48.740;22.174;2022-09-13T05:58:44;100025.28;;;12.31;100.00
50349;BME280;36250;48.740;22.174;2022-09-13T06:01:10;100025.88;;;12.33;100.00
50349;BME280;36250;48.740;22.174;2022-09-13T06:03:36;100021.97;;;12.42;100.00
50349;BME280;36250;48.740;22.174;2022-09-13T06:06:02;100020.75;;;12.52;100.00
50349;BME280;36250;48.740;22.174;2022-09-13T06:08:29;100017.25;;;12.65;100.00
50349;BME280;36250;48.740;22.174;2022-09-13T06:11:00;100018.66;;;12.74;100.00
50349;BME280;36250;48.740;22.174;2022-09-13T06:13:27;100020.25;;;12.82;100.00
50349;BME280;36250;48.740;22.174;2022-09-13T06:15:54;100018.81;;;12.86;100.00
50349;BME280;36250;48.740;22.174;2022-09-13T06:18:21;100024.59;;;12.63;100.00
50349;BME280;36250;48.740;22.174;2022-09-13T06:20:46;100028.72;;;12.38;100.00
50349;BME280;36250;48.740;22.174;2022-09-13T06:23:12;100020.00;;;12.24;100.00
50349;BME280;36250;48.740;22.174;2022-09-13T06:25:38;100022.63;;;12.17;100.00
50349;BME280;36250;48.740;22.174;2022-09-13T06:28:03;100023.25;;;12.26;100.00
50349;BME280;36250;48.740;22.174;2022-09-13T06:30:29;100016.50;;;12.24;100.00
50349;BME280;36250;48.740;22.174;2022-09-13T06:32:57;100010.34;;;12.23;100.00
50349;BME280;36250;48.740;22.174;2022-09-13T06:35:22;100019.53;;;12.41;100.00
50349;BME280;36250;48.740;22.174;2022-09-13T06:37:48;100025.84;;;12.60;100.00
50349;BME280;36250;48.740;22.174;2022-09-13T06:40:13;100030.25;;;12.80;100.00
50349;BME280;36250;48.740;22.174;2022-09-13T06:42:38;100037.19;;;12.94;100.00
50349;BME280;36250;48.740;22.174;2022-09-13T06:45:04;100024.50;;;12.96;100.00
50349;BME280;36250;48.740;22.174;2022-09-13T06:47:30;100029.16;;;13.08;100.00
50349;BME280;36250;48.740;22.174;2022-09-13T06:49:55;100026.25;;;13.16;100.00
50349;BME280;36250;48.740;22.174;2022-09-13T06:52:22;100031.19;;;13.12;100.00
50349;BME280;36250;48.740;22.174;2022-09-13T06:54:47;100038.56;;;13.03;100.00
50349;BME280;36250;48.740;22.174;2022-09-13T06:57:12;100037.19;;;12.94;100.00
50349;BME280;36250;48.740;22.174;2022-09-13T06:59:38;100038.03;;;12.88;100.00
50349;BME280;36250;48.740;22.174;2022-09-13T07:02:03;100038.66;;;12.83;100.00
50349;BME280;36250;48.740;22.174;2022-09-13T07:04:29;100041.28;;;12.90;100.00
50349;BME280;36250;48.740;22.174;2022-09-13T07:06:56;100038.16;;;13.00;100.00
50349;BME280;36250;48.740;22.174;2022-09-13T07:09:22;100042.78;;;13.18;100.00
50349;BME280;36250;48.740;22.174;2022-09-13T07:11:50;100045.34;;;13.38;100.00
50349;BME280;36250;48.740;22.174;2022-09-13T07:14:20;100053.25;;;13.58;100.00
50349;BME280;36250;48.740;22.174;2022-09-13T07:16:46;100045.41;;;13.70;100.00
50349;BME280;36250;48.740;22.174;2022-09-13T07:19:17;100049.78;;;13.90;100.00
50349;BME280;36250;48.740;22.174;2022-09-13T07:21:44;100057.19;;;14.13;100.00
50349;BME280;36250;48.740;22.174;2022-09-13T07:24:10;100046.13;;;14.35;100.00
50349;BME280;36250;48.740;22.174;2022-09-13T07:26:37;100045.91;;;14.55;98.26
50349;BME280;36250;48.740;22.174;2022-09-13T07:29:05;100047.38;;;14.76;97.88
50349;BME280;36250;48.740;22.174;2022-09-13T07:31:34;100049.16;;;15.01;95.29
50349;BME280;36250;48.740;22.174;2022-09-13T07:34:02;100042.00;;;15.14;90.02
50349;BME280;36250;48.740;22.174;2022-09-13T07:36:29;100043.19;;;15.18;88.73
50349;BME280;36250;48.740;22.174;2022-09-13T07:38:55;100044.50;;;15.27;90.51
50349;BME280;36250;48.740;22.174;2022-09-13T07:41:22;100041.66;;;15.41;87.80
50349;BME280;36250;48.740;22.174;2022-09-13T07:43:48;100052.72;;;15.56;87.20
50349;BME280;36250;48.740;22.174;2022-09-13T07:46:25;100053.91;;;15.60;85.41
50349;BME280;36250;48.740;22.174;2022-09-13T07:48:53;100055.06;;;15.64;83.63
50349;BME280;36250;48.740;22.174;2022-09-13T07:51:21;100051.38;;;15.65;84.23
50349;BME280;36250;48.740;22.174;2022-09-13T07:53:48;100048.22;;;15.69;85.12
50349;BME280;36250;48.740;22.174;2022-09-13T07:56:16;100057.44;;;15.73;85.04
50349;BME280;36250;48.740;22.174;2022-09-13T07:58:43;100058.16;;;15.80;84.95
50349;BME280;36250;48.740;22.174;2022-09-13T08:03:51;100060.66;;;16.05;84.25
50349;BME280;36250;48.740;22.174;2022-09-13T08:06:18;100065.06;;;16.12;84.79
50349;BME280;36250;48.740;22.174;2022-09-13T08:08:43;100057.06;;;16.24;82.21
50349;BME280;36250;48.740;22.174;2022-09-13T08:11:15;100054.03;;;16.32;82.91
50349;BME280;36250;48.740;22.174;2022-09-13T08:13:40;100054.97;;;16.49;81.38
50349;BME280;36250;48.740;22.174;2022-09-13T08:16:05;100048.69;;;16.56;79.08
50349;BME280;36250;48.740;22.174;2022-09-13T08:18:31;100048.34;;;16.64;79.10
50349;BME280;36250;48.740;22.174;2022-09-13T08:20:58;100045.78;;;16.57;76.75
50349;BME280;36250;48.740;22.174;2022-09-13T08:23:25;100046.59;;;16.58;77.31
50349;BME280;36250;48.740;22.174;2022-09-13T08:25:50;100051.00;;;16.64;75.60
50349;BME280;36250;48.740;22.174;2022-09-13T08:28:17;100042.06;;;16.58;74.47
50349;BME280;36250;48.740;22.174;2022-09-13T08:30:43;100051.03;;;16.52;74.71
50349;BME280;36250;48.740;22.174;2022-09-13T08:33:09;100045.31;;;16.60;73.87
50349;BME280;36250;48.740;22.174;2022-09-13T08:35:35;100052.75;;;16.70;74.21
50349;BME280;36250;48.740;22.174;2022-09-13T08:38:02;100053.53;;;16.83;75.24
50349;BME280;36250;48.740;22.174;2022-09-13T08:40:31;100046.31;;;16.83;72.42
50349;BME280;36250;48.740;22.174;2022-09-13T08:45:23;100049.00;;;16.83;72.78
50349;BME280;36250;48.740;22.174;2022-09-13T08:47:55;100052.34;;;17.02;73.60
50349;BME280;36250;48.740;22.174;2022-09-13T08:50:28;100047.47;;;17.28;71.94
50349;BME280;36250;48.740;22.174;2022-09-13T08:53:21;100055.03;;;17.31;71.43
50349;BME280;36250;48.740;22.174;2022-09-13T08:56:10;100053.41;;;17.30;72.44
50349;BME280;36250;48.740;22.174;2022-09-13T09:01:41;100050.09;;;17.86;70.55
50349;BME280;36250;48.740;22.174;2022-09-13T09:04:29;100041.53;;;18.01;67.98
50349;BME280;36250;48.740;22.174;2022-09-13T09:07:12;100042.41;;;18.07;66.04
50349;BME280;36250;48.740;22.174;2022-09-13T09:10:04;100036.19;;;18.01;65.34
50349;BME280;36250;48.740;22.174;2022-09-13T09:12:41;100030.63;;;18.08;65.91
50349;BME280;36250;48.740;22.174;2022-09-13T09:15:15;100033.22;;;18.20;67.84
50349;BME280;36250;48.740;22.174;2022-09-13T09:17:49;100034.69;;;18.28;65.17
50349;BME280;36250;48.740;22.174;2022-09-13T09:20:23;100028.75;;;18.26;65.62
50349;BME280;36250;48.740;22.174;2022-09-13T09:22:50;100031.22;;;18.49;64.10
50349;BME280;36250;48.740;22.174;2022-09-13T09:25:15;100022.63;;;18.70;65.02
50349;BME280;36250;48.740;22.174;2022-09-13T09:27:41;100022.50;;;18.81;61.35
50349;BME280;36250;48.740;22.174;2022-09-13T09:30:12;100011.59;;;18.66;62.03
50349;BME280;36250;48.740;22.174;2022-09-13T09:33:01;100017.75;;;18.89;64.10
50349;BME280;36250;48.740;22.174;2022-09-13T09:38:41;100006.00;;;19.39;62.07
50349;BME280;36250;48.740;22.174;2022-09-13T09:41:19;100001.41;;;19.40;62.22
50349;BME280;36250;48.740;22.174;2022-09-13T09:43:53;100000.34;;;19.41;63.17
50349;BME280;36250;48.740;22.174;2022-09-13T09:46:26;99996.94;;;19.51;62.55
50349;BME280;36250;48.740;22.174;2022-09-13T09:48:58;99990.09;;;19.71;60.16
50349;BME280;36250;48.740;22.174;2022-09-13T09:51:26;99985.50;;;19.61;60.03
50349;BME280;36250;48.740;22.174;2022-09-13T09:54:02;99984.84;;;19.81;60.73
50349;BME280;36250;48.740;22.174;2022-09-13T09:56:32;99991.94;;;19.92;57.43
50349;BME280;36250;48.740;22.174;2022-09-13T09:58:58;99985.81;;;20.02;58.02
50349;BME280;36250;48.740;22.174;2022-09-13T10:01:31;99970.44;;;19.97;56.98
50349;BME280;36250;48.740;22.174;2022-09-13T10:06:39;99969.16;;;19.73;57.13
50349;BME280;36250;48.740;22.174;2022-09-13T10:09:13;99966.25;;;19.42;56.50
50349;BME280;36250;48.740;22.174;2022-09-13T10:11:48;99973.56;;;19.19;59.71
50349;BME280;36250;48.740;22.174;2022-09-13T10:19:36;99975.47;;;19.51;60.31
50349;BME280;36250;48.740;22.174;2022-09-13T10:22:12;99968.19;;;19.51;58.50
50349;BME280;36250;48.740;22.174;2022-09-13T10:24:38;99965.91;;;19.65;59.87
50349;BME280;36250;48.740;22.174;2022-09-13T10:27:04;99965.97;;;19.76;57.58
50349;BME280;36250;48.740;22.174;2022-09-13T10:29:46;99959.19;;;20.01;57.64
50349;BME280;36250;48.740;22.174;2022-09-13T10:32:13;99962.84;;;20.37;55.34
50349;BME280;36250;48.740;22.174;2022-09-13T10:34:41;99958.56;;;20.36;52.81
50349;BME280;36250;48.740;22.174;2022-09-13T10:37:26;99947.50;;;20.27;53.67
50349;BME280;36250;48.740;22.174;2022-09-13T10:40:06;99958.47;;;20.79;54.15
50349;BME280;36250;48.740;22.174;2022-09-13T10:42:34;99941.81;;;20.82;49.22
50349;BME280;36250;48.740;22.174;2022-09-13T10:45:05;99951.13;;;20.59;49.71
50349;BME280;36250;48.740;22.174;2022-09-13T10:47:42;99938.91;;;20.31;49.57
50349;BME280;36250;48.740;22.174;2022-09-13T10:50:17;99937.19;;;20.09;48.01
50349;BME280;36250;48.740;22.174;2022-09-13T10:52:50;99929.31;;;19.97;49.31
50349;BME280;36250;48.740;22.174;2022-09-13T10:57:45;99933.06;;;19.58;49.42
50349;BME280;36250;48.740;22.174;2022-09-13T11:00:14;99924.59;;;19.77;48.97
50349;BME280;36250;48.740;22.174;2022-09-13T11:05:46;99904.13;;;20.08;47.80
50349;BME280;36250;48.740;22.174;2022-09-13T11:10:51;99902.13;;;20.52;45.56
50349;BME280;36250;48.740;22.174;2022-09-13T11:13:20;99905.94;;;20.72;43.99
50349;BME280;36250;48.740;22.174;2022-09-13T11:16:13;99901.13;;;20.79;43.35
50349;BME280;36250;48.740;22.174;2022-09-13T11:30:00;99873.97;;;21.48;41.45
50349;BME280;36250;48.740;22.174;2022-09-13T11:35:41;99884.75;;;21.58;41.88
50349;BME280;36250;48.740;22.174;2022-09-13T11:57:38;99879.09;;;21.44;41.93
50349;BME280;36250;48.740;22.174;2022-09-13T12:00:08;99878.03;;;21.35;43.52
50349;BME280;36250;48.740;22.174;2022-09-13T12:02:45;99879.38;;;21.27;42.49
50349;BME280;36250;48.740;22.174;2022-09-13T12:05:26;99876.41;;;20.97;43.40
50349;BME280;36250;48.740;22.174;2022-09-13T12:08:15;99875.06;;;20.95;43.65
50349;BME280;36250;48.740;22.174;2022-09-13T12:10:49;99873.19;;;21.11;43.94
50349;BME280;36250;48.740;22.174;2022-09-13T12:13:28;99881.53;;;21.04;44.15
50349;BME280;36250;48.740;22.174;2022-09-13T12:15:59;99883.13;;;21.00;45.12
50349;BME280;36250;48.740;22.174;2022-09-13T12:18:29;99887.31;;;20.49;45.71
50349;BME280;36250;48.740;22.174;2022-09-13T12:21:11;99881.13;;;20.44;44.78
50349;BME280;36250;48.740;22.174;2022-09-13T12:23:49;99886.56;;;20.59;45.91
50349;BME280;36250;48.740;22.174;2022-09-13T12:26:25;99888.38;;;20.33;47.12
50349;BME280;36250;48.740;22.174;2022-09-13T12:29:01;99885.66;;;20.27;47.25
50349;BME280;36250;48.740;22.174;2022-09-13T12:31:29;99880.59;;;20.41;46.54
50349;BME280;36250;48.740;22.174;2022-09-13T12:33:56;99879.72;;;20.20;47.48
50349;BME280;36250;48.740;22.174;2022-09-13T12:41:55;99875.09;;;21.05;47.04
50349;BME280;36250;48.740;22.174;2022-09-13T12:44:40;99866.47;;;21.03;45.49
50349;BME280;36250;48.740;22.174;2022-09-13T13:03:45;99864.81;;;20.92;45.51
50349;BME280;36250;48.740;22.174;2022-09-13T13:06:27;99864.47;;;20.47;46.29
50349;BME280;36250;48.740;22.174;2022-09-13T13:08:58;99862.03;;;20.45;46.89
50349;BME280;36250;48.740;22.174;2022-09-13T13:11:27;99867.41;;;20.40;45.81
50349;BME280;36250;48.740;22.174;2022-09-13T13:14:01;99874.19;;;20.68;47.24
50349;BME280;36250;48.740;22.174;2022-09-13T13:16:38;99874.97;;;20.53;47.46
50349;BME280;36250;48.740;22.174;2022-09-13T13:19:31;99861.78;;;20.41;48.43
50349;BME280;36250;48.740;22.174;2022-09-13T13:25:35;99851.75;;;20.21;46.86
50349;BME280;36250;48.740;22.174;2022-09-13T13:28:02;99855.34;;;20.53;47.97
50349;BME280;36250;48.740;22.174;2022-09-13T13:30:41;99850.22;;;20.56;48.17
50349;BME280;36250;48.740;22.174;2022-09-13T13:33:19;99856.16;;;20.64;48.07
50349;BME280;36250;48.740;22.174;2022-09-13T13:35:45;99853.75;;;20.73;47.21
50349;BME280;36250;48.740;22.174;2022-09-13T13:38:36;99847.72;;;20.29;47.21
50349;BME280;36250;48.740;22.174;2022-09-13T13:46:43;99856.41;;;20.57;46.80
50349;BME280;36250;48.740;22.174;2022-09-13T13:59:46;99839.84;;;20.07;48.09
50349;BME280;36250;48.740;22.174;2022-09-13T14:02:17;99842.50;;;19.96;48.70
50349;BME280;36250;48.740;22.174;2022-09-13T14:05:13;99848.44;;;20.04;49.10
50349;BME280;36250;48.740;22.174;2022-09-13T14:18:56;99820.78;;;20.03;48.26
50349;BME280;36250;48.740;22.174;2022-09-13T14:21:29;99819.97;;;20.08;48.38
50349;BME280;36250;48.740;22.174;2022-09-13T14:24:17;99816.91;;;19.89;50.11
50349;BME280;36250;48.740;22.174;2022-09-13T14:26:48;99821.47;;;19.88;49.60
50349;BME280;36250;48.740;22.174;2022-09-13T14:29:19;99826.38;;;19.96;50.44
50349;BME280;36250;48.740;22.174;2022-09-13T14:31:51;99819.94;;;19.97;48.41
50349;BME280;36250;48.740;22.174;2022-09-13T14:34:27;99821.03;;;20.02;48.36
50349;BME280;36250;48.740;22.174;2022-09-13T14:36:56;99813.50;;;20.04;48.51
50349;BME280;36250;48.740;22.174;2022-09-13T14:39:23;99810.91;;;20.24;49.96
50349;BME280;36250;48.740;22.174;2022-09-13T14:41:57;99800.94;;;20.35;47.66
50349;BME280;36250;48.740;22.174;2022-09-13T14:44:25;99809.06;;;20.61;46.98
50349;BME280;36250;48.740;22.174;2022-09-13T14:47:04;99807.75;;;20.90;46.27
50349;BME280;36250;48.740;22.174;2022-09-13T14:49:41;99806.16;;;21.15;44.74
50349;BME280;36250;48.740;22.174;2022-09-13T14:52:15;99798.31;;;21.18;45.36
50349;BME280;36250;48.740;22.174;2022-09-13T14:54:46;99794.41;;;22.37;41.46
50349;BME280;36250;48.740;22.174;2022-09-13T14:57:33;99795.59;;;22.95;40.42
50349;BME280;36250;48.740;22.174;2022-09-13T15:00:04;99787.59;;;22.84;40.64
50349;BME280;36250;48.740;22.174;2022-09-13T15:02:36;99779.66;;;22.64;40.26
50349;BME280;36250;48.740;22.174;2022-09-13T15:05:06;99790.84;;;22.52;41.11
50349;BME280;36250;48.740;22.174;2022-09-13T15:07:38;99765.56;;;26.52;34.53
50349;BME280;36250;48.740;22.174;2022-09-13T15:15:32;99765.91;;;22.65;39.03
50349;BME280;36250;48.740;22.174;2022-09-13T15:23:23;99772.66;;;28.24;32.24
50349;BME280;36250;48.740;22.174;2022-09-13T15:25:56;99763.66;;;30.26;29.50
50349;BME280;36250;48.740;22.174;2022-09-13T15:28:29;99770.94;;;27.61;32.17
50349;BME280;36250;48.740;22.174;2022-09-13T15:30:57;99778.34;;;25.64;34.75
50349;BME280;36250;48.740;22.174;2022-09-13T15:33:40;99784.78;;;24.22;37.55
50349;BME280;36250;48.740;22.174;2022-09-13T15:36:26;99792.50;;;23.12;39.53
50349;BME280;36250;48.740;22.174;2022-09-13T15:39:19;99797.31;;;23.15;40.54
50349;BME280;36250;48.740;22.174;2022-09-13T15:44:17;99783.06;;;23.09;40.56
50349;BME280;36250;48.740;22.174;2022-09-13T15:46:49;99769.31;;;24.41;38.11
50349;BME280;36250;48.740;22.174;2022-09-13T15:49:18;99763.19;;;23.29;40.42
50349;BME280;36250;48.740;22.174;2022-09-13T15:51:44;99763.34;;;22.45;42.31
50349;BME280;36250;48.740;22.174;2022-09-13T15:54:15;99769.94;;;21.67;43.31
50349;BME280;36250;48.740;22.174;2022-09-13T15:56:46;99778.66;;;21.23;44.99